createdAt,value
2022-11-27T00:00:18.540Z,8.27
2022-11-27T00:04:24.509Z,8.24
2022-11-27T00:08:27.634Z,8.22
2022-11-27T00:12:32.373Z,8.21
2022-11-27T00:16:35.477Z,8.20
2022-11-27T00:20:40.106Z,8.19
2022-11-27T00:24:45.130Z,8.14
2022-11-27T00:28:48.679Z,8.09
2022-11-27T00:32:52.142Z,8.09
2022-11-27T00:36:57.045Z,8.06
2022-11-27T00:41:01.028Z,7.98
2022-11-27T00:45:04.568Z,7.95
2022-11-27T00:49:09.100Z,7.95
2022-11-27T00:53:14.088Z,7.95
2022-11-27T00:57:17.217Z,7.97
2022-11-27T01:01:23.060Z,8.02
2022-11-27T01:05:26.714Z,8.08
2022-11-27T01:09:31.430Z,8.15
2022-11-27T01:13:37.535Z,8.22
2022-11-27T01:17:40.700Z,8.29
2022-11-27T01:21:46.494Z,8.34
2022-11-27T01:25:53.842Z,8.38
2022-11-27T01:29:56.882Z,8.37
2022-11-27T01:34:02.458Z,8.35
2022-11-27T01:38:06.515Z,8.32
2022-11-27T01:42:13.316Z,8.29
2022-11-27T01:46:30.252Z,8.23
2022-11-27T01:50:37.445Z,8.17
2022-11-27T01:54:44.726Z,8.04
2022-11-27T01:58:50.421Z,7.86
2022-11-27T02:02:53.900Z,7.67
2022-11-27T02:07:00.409Z,7.46
2022-11-27T02:11:09.371Z,7.26
2022-11-27T02:15:21.953Z,7.08
2022-11-27T02:19:38.454Z,6.92
2022-11-27T02:24:14.252Z,6.79
2022-11-27T02:28:36.302Z,6.67
2022-11-27T02:32:48.840Z,6.61
2022-11-27T02:37:00.201Z,6.52
2022-11-27T02:41:09.015Z,6.44
2022-11-27T02:45:15.081Z,6.37
2022-11-27T02:49:21.925Z,6.32
2022-11-27T02:53:31.419Z,6.25
2022-11-27T02:57:37.801Z,6.17
2022-11-27T03:01:46.661Z,6.10
2022-11-27T03:05:53.413Z,6.04
2022-11-27T03:10:01.081Z,6.01
2022-11-27T03:14:09.304Z,6.02
2022-11-27T03:18:22.180Z,6.02
2022-11-27T03:22:28.573Z,5.99
2022-11-27T03:26:32.218Z,5.93
2022-11-27T03:30:35.767Z,5.86
2022-11-27T03:34:40.161Z,5.80
2022-11-27T03:38:47.350Z,5.78
2022-11-27T03:43:00.564Z,5.81
2022-11-27T03:47:12.717Z,5.88
2022-11-27T03:51:22.743Z,5.99
2022-11-27T03:55:37.795Z,6.10
2022-11-27T03:59:44.368Z,6.23
2022-11-27T04:03:47.937Z,6.35
2022-11-27T04:07:51.656Z,6.47
2022-11-27T04:11:56.447Z,6.59
2022-11-27T04:16:01.863Z,6.71
2022-11-27T04:20:07.042Z,6.80
2022-11-27T04:24:10.575Z,6.88
2022-11-27T04:28:15.571Z,6.93
2022-11-27T04:32:18.692Z,6.99
2022-11-27T04:36:22.222Z,7.04
2022-11-27T04:40:25.850Z,7.10
2022-11-27T04:44:30.436Z,7.19
2022-11-27T04:48:34.005Z,7.27
2022-11-27T04:52:37.755Z,7.32
2022-11-27T04:56:41.062Z,7.37
2022-11-27T05:00:45.872Z,7.43
2022-11-27T05:04:49.457Z,7.46
2022-11-27T05:08:52.575Z,7.49
2022-11-27T05:12:56.377Z,7.51
2022-11-27T05:17:02.088Z,7.54
2022-11-27T05:21:07.087Z,7.55
2022-11-27T05:25:11.525Z,7.55
2022-11-27T05:29:15.889Z,7.58
2022-11-27T05:33:20.932Z,7.59
2022-11-27T05:37:24.445Z,7.59
2022-11-27T05:41:27.660Z,7.62
2022-11-27T05:45:31.166Z,7.64
2022-11-27T05:49:36.141Z,7.66
2022-11-27T05:53:39.826Z,7.69
2022-11-27T05:57:43.025Z,7.71
2022-11-27T06:01:46.822Z,7.72
2022-11-27T06:05:51.255Z,7.73
2022-11-27T06:09:54.875Z,7.76
2022-11-27T06:13:57.976Z,7.78
2022-11-27T06:18:01.538Z,7.80
2022-11-27T06:22:06.534Z,7.83
2022-11-27T06:26:18.466Z,7.86
2022-11-27T06:30:22.172Z,7.88
2022-11-27T06:34:25.594Z,7.88
2022-11-27T06:38:31.420Z,7.88
2022-11-27T06:42:34.946Z,7.86
2022-11-27T06:46:38.634Z,7.85
2022-11-27T06:54:59.990Z,7.86
2022-11-27T06:59:03.964Z,7.86
2022-11-27T07:03:09.004Z,7.89
2022-11-27T07:07:12.282Z,7.88
2022-11-27T07:11:19.713Z,7.89
2022-11-27T07:15:23.228Z,7.89
2022-11-27T07:19:26.711Z,7.87
2022-11-27T07:23:29.979Z,7.85
2022-11-27T07:27:34.920Z,7.86
2022-11-27T07:31:38.786Z,7.74
2022-11-27T07:35:42.274Z,7.87
2022-11-27T07:40:01.848Z,7.85
2022-11-27T07:44:08.443Z,7.90
2022-11-27T07:48:12.230Z,7.90
2022-11-27T07:52:15.636Z,7.94
2022-11-27T07:56:19.860Z,7.97
2022-11-27T08:00:26.693Z,8.02
2022-11-27T08:04:30.444Z,8.07
2022-11-27T08:08:35.201Z,8.11
2022-11-27T08:12:38.317Z,8.13
2022-11-27T08:16:43.588Z,8.16
2022-11-27T08:20:47.202Z,8.19
2022-11-27T08:24:51.756Z,8.22
2022-11-27T08:28:55.466Z,8.29
2022-11-27T08:33:00.294Z,8.37
2022-11-27T08:37:03.922Z,8.45
2022-11-27T08:41:08.915Z,8.54
2022-11-27T08:45:12.732Z,8.63
2022-11-27T08:49:17.632Z,8.70
2022-11-27T08:53:21.522Z,8.87
2022-11-27T08:57:24.685Z,8.97
2022-11-27T09:01:30.843Z,9.09
2022-11-27T09:05:37.579Z,9.18
2022-11-27T09:09:40.905Z,9.20
2022-11-27T09:13:45.151Z,9.26
2022-11-27T09:17:49.194Z,9.30
2022-11-27T09:21:54.197Z,9.30
2022-11-27T09:26:00.010Z,9.42
2022-11-27T09:30:03.805Z,9.47
2022-11-27T09:34:07.359Z,9.60
2022-11-27T09:38:12.672Z,9.72
2022-11-27T09:42:30.105Z,9.84
2022-11-27T09:46:36.500Z,9.89
2022-11-27T09:56:07.388Z,10.07
2022-11-27T10:00:16.368Z,10.08
2022-11-27T10:04:21.950Z,10.14
2022-11-27T10:08:35.207Z,10.14
2022-11-27T10:12:51.475Z,10.16
2022-11-27T10:17:02.205Z,10.22
2022-11-27T10:21:11.838Z,10.13
2022-11-27T10:25:20.357Z,10.25
2022-11-27T10:29:37.693Z,10.26
2022-11-27T10:33:46.542Z,10.31
2022-11-27T10:37:56.205Z,10.34
2022-11-27T10:42:08.056Z,10.34
2022-11-27T10:46:16.526Z,10.41
2022-11-27T10:50:21.595Z,10.43
2022-11-27T10:54:29.066Z,10.45
2022-11-27T10:58:38.004Z,10.44
2022-11-27T11:02:43.399Z,10.38
2022-11-27T11:06:49.638Z,10.45
2022-11-27T11:10:55.471Z,10.47
2022-11-27T11:15:00.581Z,10.51
2022-11-27T11:19:06.722Z,10.59
2022-11-27T11:23:22.810Z,10.68
2022-11-27T11:27:30.120Z,10.74
2022-11-27T11:31:36.716Z,10.86
2022-11-27T11:35:43.939Z,10.99
2022-11-27T11:39:57.576Z,11.16
2022-11-27T11:44:03.498Z,11.36
2022-11-27T11:48:23.604Z,11.55
2022-11-27T11:52:43.604Z,11.66
2022-11-27T11:56:53.061Z,11.72
2022-11-27T12:01:25.838Z,11.75
2022-11-27T12:05:35.952Z,11.75
2022-11-27T12:09:48.447Z,11.79
2022-11-27T12:14:07.796Z,11.74
2022-11-27T12:18:21.736Z,11.69
2022-11-27T12:22:46.853Z,11.64
2022-11-27T12:27:07.128Z,11.64
2022-11-27T12:31:23.637Z,11.63
2022-11-27T12:35:34.704Z,11.59
2022-11-27T12:39:52.571Z,11.54
2022-11-27T12:44:01.200Z,11.41
2022-11-27T12:48:13.982Z,11.33
2022-11-27T12:52:21.419Z,11.24
2022-11-27T12:56:30.732Z,11.14
2022-11-27T13:00:40.554Z,11.06
2022-11-27T13:04:49.623Z,10.99
2022-11-27T13:09:00.544Z,10.99
2022-11-27T13:13:08.104Z,11.06
2022-11-27T13:17:18.707Z,11.18
2022-11-27T13:21:26.341Z,11.25
2022-11-27T13:25:33.284Z,11.24
2022-11-27T13:29:44.770Z,11.17
2022-11-27T13:33:50.837Z,11.07
2022-11-27T13:38:00.104Z,10.92
2022-11-27T13:42:09.686Z,10.73
2022-11-27T13:46:21.070Z,10.52
2022-11-27T13:50:31.078Z,10.31
2022-11-27T13:54:34.840Z,10.13
2022-11-27T13:58:40.053Z,10.02
2022-11-27T14:02:45.760Z,9.99
2022-11-27T14:06:58.242Z,10.01
2022-11-27T14:11:07.454Z,10.07
2022-11-27T14:15:22.369Z,10.16
2022-11-27T14:19:33.794Z,10.28
2022-11-27T14:23:52.021Z,10.39
2022-11-27T14:28:05.765Z,10.47
2022-11-27T14:32:14.564Z,10.51
2022-11-27T14:36:25.830Z,10.51
2022-11-27T14:40:30.902Z,10.49
2022-11-27T14:44:35.187Z,10.43
2022-11-27T14:48:45.688Z,10.35
2022-11-27T14:52:53.739Z,10.21
2022-11-27T14:56:59.281Z,10.03
2022-11-27T15:01:05.081Z,9.83
2022-11-27T15:05:09.485Z,9.61
2022-11-27T15:09:34.613Z,9.36
2022-11-27T15:13:40.003Z,9.08
2022-11-27T15:17:49.676Z,8.83
2022-11-27T15:21:52.853Z,8.57
2022-11-27T15:26:14.341Z,8.31
2022-11-27T15:30:22.157Z,8.06
2022-11-27T15:34:25.963Z,7.82
2022-11-27T15:38:29.180Z,7.57
2022-11-27T15:42:32.679Z,7.37
2022-11-27T15:46:37.631Z,7.18
2022-11-27T15:50:40.896Z,7.01
2022-11-27T15:54:44.519Z,6.87
2022-11-27T15:58:47.709Z,6.71
2022-11-27T16:02:55.961Z,6.60
2022-11-27T16:06:59.238Z,6.50
2022-11-27T16:11:03.830Z,6.43
2022-11-27T16:15:08.875Z,6.38
2022-11-27T16:19:15.522Z,6.36
2022-11-27T16:23:18.764Z,6.30
2022-11-27T16:27:22.520Z,6.25
2022-11-27T16:31:27.302Z,6.19
2022-11-27T16:35:31.927Z,6.13
2022-11-27T16:39:35.020Z,6.07
2022-11-27T16:43:40.862Z,6.05
2022-11-27T16:47:44.309Z,6.04
2022-11-27T16:51:50.702Z,6.03
2022-11-27T16:55:53.825Z,6.02
2022-11-27T16:59:58.632Z,6.02
2022-11-27T17:04:04.158Z,6.01
2022-11-27T17:08:09.123Z,5.99
2022-11-27T17:12:12.926Z,5.96
2022-11-27T17:16:17.248Z,5.92
2022-11-27T17:20:20.959Z,5.88
2022-11-27T17:24:26.787Z,5.86
2022-11-27T17:28:30.611Z,5.82
2022-11-27T17:32:35.257Z,5.82
2022-11-27T17:36:42.694Z,5.83
2022-11-27T17:40:49.808Z,5.83
2022-11-27T17:44:53.046Z,5.87
2022-11-27T17:48:59.203Z,5.89
2022-11-27T17:53:02.963Z,5.90
2022-11-27T17:57:07.997Z,5.91
2022-11-27T18:01:17.677Z,5.91
2022-11-27T18:05:21.099Z,5.89
2022-11-27T18:09:24.682Z,5.87
2022-11-27T18:13:33.474Z,5.84
2022-11-27T18:17:36.976Z,5.80
2022-11-27T18:21:40.731Z,5.76
2022-11-27T18:25:48.777Z,5.72
2022-11-27T18:29:53.928Z,5.69
2022-11-27T18:33:57.926Z,5.66
2022-11-27T18:38:01.593Z,5.64
2022-11-27T18:42:05.499Z,5.62
2022-11-27T18:46:14.883Z,5.62
2022-11-27T18:50:18.530Z,5.59
2022-11-27T18:54:23.855Z,5.58
2022-11-27T18:58:27.395Z,5.55
2022-11-27T19:02:32.263Z,5.53
2022-11-27T19:06:37.978Z,5.50
2022-11-27T19:10:41.794Z,5.45
2022-11-27T19:14:45.469Z,5.38
2022-11-27T19:18:50.567Z,5.35
2022-11-27T19:22:54.048Z,5.30
2022-11-27T19:26:58.870Z,5.23
2022-11-27T19:31:06.301Z,5.17
2022-11-27T19:35:11.397Z,5.13
2022-11-27T19:39:16.974Z,5.09
2022-11-27T19:43:20.606Z,5.05
2022-11-27T19:47:25.921Z,5.00
2022-11-27T19:51:36.284Z,4.97
2022-11-27T19:55:40.759Z,4.91
2022-11-27T19:59:48.017Z,4.89
2022-11-27T20:03:52.762Z,4.84
2022-11-27T20:08:00.287Z,4.77
2022-11-27T20:12:04.343Z,4.70
2022-11-27T20:16:09.774Z,4.62
2022-11-27T20:20:15.291Z,4.57
2022-11-27T20:24:22.761Z,4.52
2022-11-27T20:28:26.563Z,4.46
2022-11-27T20:32:29.985Z,4.43
2022-11-27T20:36:35.042Z,4.40
2022-11-27T20:40:41.708Z,4.38
2022-11-27T20:44:46.656Z,4.33
2022-11-27T20:48:52.314Z,4.30
2022-11-27T20:52:56.214Z,4.27
2022-11-27T20:57:02.021Z,4.25
2022-11-27T21:01:15.033Z,4.23
2022-11-27T21:05:18.708Z,4.20
2022-11-27T21:09:24.441Z,4.18
2022-11-27T21:13:29.531Z,4.16
2022-11-27T21:17:32.974Z,4.14
2022-11-27T21:21:39.051Z,4.11
2022-11-27T21:25:44.256Z,4.07
2022-11-27T21:29:49.087Z,4.04
2022-11-27T21:33:54.946Z,3.99
2022-11-27T21:37:58.517Z,3.94
2022-11-27T21:42:01.628Z,3.89
2022-11-27T21:46:09.727Z,3.87
2022-11-27T21:50:14.559Z,3.85
2022-11-27T21:54:19.559Z,3.83
2022-11-27T21:58:22.811Z,3.82
2022-11-27T22:02:27.666Z,3.82
2022-11-27T22:06:36.999Z,3.82
2022-11-27T22:10:41.170Z,3.82
2022-11-27T22:14:44.761Z,3.82
2022-11-27T22:18:51.018Z,3.84
2022-11-27T22:22:54.530Z,3.85
2022-11-27T22:26:57.694Z,3.85
2022-11-27T22:31:00.867Z,3.83
2022-11-27T22:35:06.430Z,3.80
2022-11-27T22:39:10.960Z,3.74
2022-11-27T22:43:14.118Z,3.72
2022-11-27T22:47:17.679Z,3.72
2022-11-27T22:51:22.935Z,3.76
2022-11-27T22:55:26.447Z,3.79
2022-11-27T22:59:32.791Z,3.85
2022-11-27T23:03:37.499Z,3.92
2022-11-27T23:07:42.399Z,3.96
2022-11-27T23:11:48.408Z,3.99
2022-11-27T23:15:51.890Z,3.97
2022-11-27T23:19:55.008Z,4.00
2022-11-27T23:23:59.753Z,4.05
2022-11-27T23:28:03.326Z,4.10
2022-11-27T23:32:07.298Z,4.15
2022-11-27T23:36:11.458Z,4.19
2022-11-27T23:40:16.791Z,4.21
2022-11-27T23:44:21.499Z,4.20
2022-11-27T23:48:25.525Z,4.16
2022-11-27T23:52:28.624Z,4.13
2022-11-27T23:56:34.258Z,4.09
